Terminal Aerodrome Forecast
Issued by NWS Wilmington, NC

Home | Current Version | Previous Version | Text Only | Print | Product List | Glossary On
Versions: 1 2 3 4 5 6 7 8 9 10 11 12 13 14 15 16 17 18 19 20 21 22 23 24 25
789
FTUS42 KILM 011720
TAFMYR
TAF
KMYR 011720Z 0118/0218 17010KT P6SM SCT025 OVC060
      TEMPO 0119/0122 VRB08KT 4SM -TSRA BR BKN025CB
     FM012200 19013KT P6SM SCT060 BKN250
     FM020500 22008KT P6SM VCSH SCT050 BKN150
     FM021200 23006KT P6SM VCTS SCT040CB BKN080=

USA.gov is the U.S. government's official web portal to all federal, state and local government web resources and services.